5PN8 weather

Lincoln Farms Airport
Calvin, Pennsylvania, United States

Public forecast

Using degrees Fahrenheit for public forecast. Weather courtesy of forecast.io.

Closest aviation weather report (METAR) to Lincoln Farms Airport

Closest report is Altoona Blair County Airport, 12.7 nm (23.6 km) W. Retrieved 2020/06/05 12:53 UTC (57 minutes ago):

KAOO 051253Z AUTO 20007KT 3SM HZ BKN050 21/18 A2996 RMK AO2 SLP137 T02110178

Closest aviation forecast (TAF) to Lincoln Farms Airport

Closest forecast is Altoona Blair County Airport, 12.7 nm (23.6 km) W. Retrieved 2020/06/05 12:22 UTC (1 hour ago):

TAF KAOO 051120Z 0512/0612 16003KT P6SM BKN120 FM051300 19005KT P6SM BKN045 TEMPO 0518/0521 3SM TSRA BR OVC025CB FM060000 21005KT P6SM SCT045 BKN100 FM061100 27008KT P6SM SCT025 BKN060